EIKY/KIR METAR and TAF weather

Enter ICAO airport designator
Station Type Date Time Source
EIKY METAR 2019/06/18 17:00 UTC NOAA

EIKY 181700Z 31007KT 270V340 9999 SCT030 16/10 Q1011


Station Type Date Time Source
EIKY Decoded METAR 2019/06/18 17:00 UTC NOAA

Station name not available
Jun 18, 2019 - 01:00 PM EDT / 2019.06.18 1700 UTC
Wind: from the NW (310 degrees) at 8 MPH (7 KT) (direction variable):0
Visibility: greater than 7 mile(s):0
Sky conditions: partly cloudy
Temperature: 60 F (16 C)
Dew Point: 50 F (10 C)
Relative Humidity: 67%
Pressure (altimeter): 29.85 in. Hg (1011 hPa)
ob: EIKY 181700Z 31007KT 270V340 9999 SCT030 16/10 Q1011
cycle: 17

Station Type Date Time Source
EIKY TAF UTC NOAA

Error!

Example: see airport list